Time;durP1;ratioP1;P1;durP2;ratioP2;P2;SDS_P1;SDS_P2;PMS_P1;PMS_P2;Temp;Humidity;BMP_temperature;BMP_pressure;BME280_temperature;BME280_humidity;BME280_pressure;Samples;Min_cycle;Max_cycle;Signal;HPM_P1;HPM_P2
2023/03/17 04:03:07;;;;;;;0.73;0.60;;;16.40;50.00;;;;;;4897408;28;44996;-64
2023/03/17 04:05:33;;;;;;;1.27;0.75;;;16.30;49.90;;;;;;4909526;28;45210;-65
2023/03/17 04:07:58;;;;;;;1.05;0.75;;;16.30;49.90;;;;;;4900179;28;45314;-65
2023/03/17 04:10:24;;;;;;;0.80;0.70;;;16.40;50.00;;;;;;4937549;28;45509;-65
2023/03/17 04:12:49;;;;;;;1.55;0.98;;;16.40;50.00;;;;;;4953719;28;45436;-64
2023/03/17 04:15:16;;;;;;;1.13;0.77;;;16.30;50.00;;;;;;4916088;28;45213;-65
2023/03/17 04:17:41;;;;;;;0.80;0.80;;;16.30;49.90;;;;;;4930454;28;46815;-64
2023/03/17 04:20:08;;;;;;;1.13;0.85;;;16.30;50.00;;;;;;4917383;28;45434;-64
2023/03/17 04:22:33;;;;;;;0.88;0.80;;;16.30;50.00;;;;;;4905726;28;45259;-64
2023/03/17 04:24:59;;;;;;;0.55;0.55;;;16.30;50.00;;;;;;4904716;28;45075;-64
2023/03/17 04:27:24;;;;;;;1.08;0.85;;;16.30;50.00;;;;;;4949853;28;45419;-64
2023/03/17 04:29:50;;;;;;;1.13;0.68;;;16.30;50.00;;;;;;4918395;28;44660;-64
2023/03/17 04:32:15;;;;;;;0.70;0.63;;;16.30;50.00;;;;;;4923398;28;45014;-65
2023/03/17 04:34:41;;;;;;;0.85;0.60;;;16.20;50.00;;;;;;4932643;28;45389;-65
2023/03/17 04:37:08;;;;;;;0.75;0.70;;;16.20;50.00;;;;;;4911058;28;46100;-64
2023/03/17 04:39:33;;;;;;;1.73;1.00;;;16.20;50.00;;;;;;4954453;28;45478;-65
2023/03/17 04:41:59;;;;;;;0.60;0.55;;;16.20;50.00;;;;;;4944735;28;45255;-64
2023/03/17 04:44:25;;;;;;;0.80;0.80;;;16.20;50.00;;;;;;4934492;28;45260;-64
2023/03/17 04:46:51;;;;;;;0.77;0.68;;;16.30;50.00;;;;;;4920015;28;46002;-65
2023/03/17 04:49:16;;;;;;;0.73;0.73;;;16.20;50.00;;;;;;4934682;28;46569;-65
2023/03/17 04:51:42;;;;;;;0.95;0.70;;;16.20;50.00;;;;;;4949129;28;45480;-64
2023/03/17 04:54:07;;;;;;;0.68;0.60;;;16.20;50.00;;;;;;4935747;28;45402;-64
2023/03/17 04:56:33;;;;;;;0.47;0.40;;;16.20;50.00;;;;;;4945842;28;44979;-64
2023/03/17 04:58:59;;;;;;;0.57;0.57;;;16.20;50.00;;;;;;4935922;28;45002;-65
2023/03/17 05:01:25;;;;;;;1.15;0.57;;;16.10;49.90;;;;;;4898358;28;45477;-64
2023/03/17 05:03:50;;;;;;;0.82;0.73;;;16.10;50.00;;;;;;4910574;28;46148;-65
2023/03/17 05:06:16;;;;;;;0.90;0.70;;;16.20;50.00;;;;;;4909805;28;46134;-65
2023/03/17 05:08:43;;;;;;;0.73;0.73;;;16.10;50.00;;;;;;4931951;28;45289;-64
2023/03/17 05:11:09;;;;;;;1.23;0.90;;;16.20;50.00;;;;;;4917864;28;45251;-64
2023/03/17 05:13:35;;;;;;;1.58;0.75;;;16.10;50.00;;;;;;4919487;28;45258;-65
2023/03/17 05:16:01;;;;;;;1.30;0.68;;;16.10;50.30;;;;;;4924311;28;45258;-65
2023/03/17 05:18:26;;;;;;;0.60;0.60;;;16.10;50.00;;;;;;4929579;28;45533;-65
2023/03/17 05:20:52;;;;;;;1.10;0.80;;;16.10;50.00;;;;;;4911871;28;45287;-64
2023/03/17 05:23:17;;;;;;;1.10;0.70;;;16.10;50.00;;;;;;4931721;28;45557;-65
2023/03/17 05:25:43;;;;;;;0.68;0.68;;;16.10;50.00;;;;;;4910825;28;45590;-64
2023/03/17 05:28:08;;;;;;;1.65;1.00;;;16.10;50.00;;;;;;4916898;28;45574;-64
2023/03/17 05:30:37;;;;;;;0.95;0.65;;;16.10;50.00;;;;;;4920661;28;45275;-65
2023/03/17 05:33:03;;;;;;;1.70;0.77;;;16.10;50.10;;;;;;4928265;28;45567;-64
2023/03/17 05:35:28;;;;;;;0.60;0.60;;;16.10;50.00;;;;;;4875082;28;45736;-64
2023/03/17 05:37:54;;;;;;;0.63;0.63;;;16.00;50.00;;;;;;4908273;28;45461;-64
2023/03/17 05:40:19;;;;;;;0.68;0.55;;;16.10;50.10;;;;;;4922232;28;45247;-64
2023/03/17 05:42:45;;;;;;;0.70;0.50;;;16.00;50.00;;;;;;4908475;28;45310;-64
2023/03/17 05:45:11;;;;;;;0.85;0.80;;;16.00;50.00;;;;;;4909278;28;45950;-65
2023/03/17 05:47:36;;;;;;;0.70;0.60;;;16.00;50.00;;;;;;4912468;28;45502;-64
2023/03/17 05:50:03;;;;;;;0.77;0.60;;;16.00;50.10;;;;;;4927219;28;45463;-64
2023/03/17 05:52:30;;;;;;;0.70;0.65;;;16.00;50.00;;;;;;4869315;28;45260;-65
2023/03/17 05:54:56;;;;;;;1.15;0.80;;;16.00;50.00;;;;;;4902549;28;47276;-64
2023/03/17 05:57:22;;;;;;;0.82;0.60;;;16.00;50.10;;;;;;4924998;28;46187;-64
2023/03/17 05:59:47;;;;;;;0.95;0.70;;;16.00;50.00;;;;;;4915869;28;44738;-65
2023/03/17 06:02:13;;;;;;;1.08;0.80;;;16.00;50.00;;;;;;4915712;28;45983;-65
2023/03/17 06:04:39;;;;;;;1.15;0.73;;;16.00;50.10;;;;;;4932284;28;45142;-65
2023/03/17 06:07:12;;;;;;;1.13;0.80;;;15.90;50.00;;;;;;5097790;27;46122;-62
2023/03/17 06:09:38;;;;;;;0.73;0.70;;;16.00;50.10;;;;;;5054002;27;45587;-63
2023/03/17 06:12:03;;;;;;;1.00;0.80;;;15.90;50.10;;;;;;5076664;27;45441;-63
2023/03/17 06:14:29;;;;;;;0.60;0.55;;;15.90;50.00;;;;;;5087770;27;45528;-63
2023/03/17 06:16:54;;;;;;;0.80;0.68;;;15.90;50.00;;;;;;5071749;27;46111;-63
2023/03/17 06:19:20;;;;;;;1.15;0.70;;;15.90;50.10;;;;;;5082071;27;45612;-63
2023/03/17 06:21:46;;;;;;;2.03;0.80;;;15.90;50.10;;;;;;5078110;27;45460;-63
2023/03/17 06:24:11;;;;;;;0.68;0.68;;;15.90;50.10;;;;;;5081353;27;45114;-63
2023/03/17 06:26:37;;;;;;;0.55;0.55;;;15.90;50.10;;;;;;5075739;27;45284;-63
2023/03/17 06:29:08;;;;;;;0.85;0.63;;;15.90;50.10;;;;;;5080163;27;45298;-62
2023/03/17 06:31:37;;;;;;;1.20;0.65;;;15.90;50.10;;;;;;5055100;27;45107;-63
2023/03/17 06:34:02;;;;;;;1.35;0.90;;;15.90;50.00;;;;;;5080479;27;45553;-63
2023/03/17 06:36:29;;;;;;;1.17;0.70;;;15.90;50.00;;;;;;5082412;27;45294;-63
2023/03/17 06:38:54;;;;;;;0.82;0.70;;;15.90;50.00;;;;;;5102820;27;45311;-61
2023/03/17 06:41:20;;;;;;;1.20;0.73;;;15.90;50.00;;;;;;5081938;27;44950;-63
2023/03/17 06:43:46;;;;;;;1.10;0.80;;;15.90;50.00;;;;;;5087321;27;45613;-62
2023/03/17 06:46:11;;;;;;;1.77;1.00;;;15.90;50.00;;;;;;5095645;27;46255;-63
2023/03/17 06:48:37;;;;;;;1.20;0.80;;;15.90;49.90;;;;;;5087177;27;45304;-58
2023/03/17 06:51:03;;;;;;;0.70;0.70;;;15.90;49.90;;;;;;5085878;27;44952;-60
2023/03/17 06:53:28;;;;;;;1.15;0.60;;;16.00;49.90;;;;;;5093475;27;45602;-60
2023/03/17 06:55:55;;;;;;;1.65;0.90;;;16.00;49.70;;;;;;5068759;27;46695;-60
2023/03/17 06:58:20;;;;;;;0.70;0.70;;;16.10;49.70;;;;;;5092842;27;45248;-59
2023/03/17 07:00:47;;;;;;;2.22;0.80;;;16.20;49.70;;;;;;5082576;27;45246;-59
2023/03/17 07:03:14;;;;;;;1.02;0.70;;;16.40;49.50;;;;;;5110748;27;45341;-59
2023/03/17 07:05:40;;;;;;;0.98;0.60;;;16.50;49.10;;;;;;5081128;27;46255;-61
2023/03/17 07:08:06;;;;;;;1.08;0.80;;;16.70;48.90;;;;;;5111660;27;46215;-61
2023/03/17 07:10:32;;;;;;;0.80;0.80;;;16.90;48.70;;;;;;5077574;27;45543;-62
2023/03/17 07:12:57;;;;;;;0.98;0.65;;;17.10;48.50;;;;;;5093337;27;45777;-61
2023/03/17 07:15:23;;;;;;;0.70;0.70;;;17.30;48.30;;;;;;5082624;27;46435;-60
2023/03/17 07:17:49;;;;;;;1.02;0.70;;;17.40;48.20;;;;;;5071177;27;45194;-60
2023/03/17 07:20:14;;;;;;;0.70;0.50;;;17.60;48.00;;;;;;5084545;27;45218;-60
2023/03/17 07:22:40;;;;;;;1.15;0.70;;;17.70;47.90;;;;;;5077974;27;45242;-60
2023/03/17 07:25:06;;;;;;;0.73;0.60;;;17.90;47.90;;;;;;5093230;27;45318;-61
2023/03/17 07:27:32;;;;;;;0.70;0.70;;;18.00;47.70;;;;;;5074605;27;45497;-60
2023/03/17 07:30:01;;;;;;;2.80;0.73;;;18.10;47.60;;;;;;5071819;27;44707;-61
2023/03/17 07:32:26;;;;;;;1.00;0.77;;;18.30;47.60;;;;;;5080077;27;45475;-61
2023/03/17 07:34:52;;;;;;;1.98;0.73;;;18.40;47.50;;;;;;5096761;27;46062;-60
2023/03/17 07:37:18;;;;;;;1.05;0.77;;;18.50;47.50;;;;;;5066812;27;45084;-60
2023/03/17 07:39:46;;;;;;;0.93;0.70;;;18.60;47.40;;;;;;5096260;27;45530;-61
2023/03/17 07:42:13;;;;;;;0.77;0.68;;;18.70;47.30;;;;;;5087221;27;45480;-61
2023/03/17 07:44:40;;;;;;;1.00;0.77;;;18.90;47.30;;;;;;5078790;27;45140;-61
2023/03/17 07:47:06;;;;;;;0.90;0.65;;;19.00;47.20;;;;;;5080319;27;45144;-60
2023/03/17 07:49:32;;;;;;;0.75;0.50;;;19.10;47.10;;;;;;5075845;27;45491;-60
2023/03/17 07:51:57;;;;;;;0.57;0.50;;;19.20;47.00;;;;;;5084851;27;45530;-60
2023/03/17 07:54:24;;;;;;;0.73;0.70;;;19.40;47.00;;;;;;5093810;27;46213;-60
2023/03/17 07:56:50;;;;;;;0.90;0.60;;;19.50;46.80;;;;;;5074274;27;46291;-60
2023/03/17 07:59:16;;;;;;;0.70;0.60;;;19.60;46.80;;;;;;5075978;27;45451;-60
2023/03/17 08:01:41;;;;;;;0.93;0.65;;;19.60;46.60;;;;;;5081367;27;45215;-60
2023/03/17 08:04:07;;;;;;;0.82;0.60;;;19.70;46.60;;;;;;5092649;27;45602;-59
2023/03/17 08:06:33;;;;;;;0.95;0.70;;;19.80;46.50;;;;;;5090518;27;45937;-60
2023/03/17 08:08:58;;;;;;;0.77;0.60;;;19.90;46.50;;;;;;5078259;27;44620;-61
2023/03/17 08:11:24;;;;;;;0.50;0.50;;;20.00;46.40;;;;;;5088647;27;46092;-63
2023/03/17 08:13:49;;;;;;;1.45;0.40;;;20.10;46.30;;;;;;5095326;27;46111;-62
2023/03/17 08:16:15;;;;;;;0.75;0.63;;;20.20;46.30;;;;;;5067481;27;44946;-64
2023/03/17 08:18:41;;;;;;;0.93;0.50;;;20.30;46.20;;;;;;5068993;27;45228;-64
2023/03/17 08:21:06;;;;;;;0.38;0.38;;;20.30;46.10;;;;;;5071684;27;45300;-64
2023/03/17 08:23:32;;;;;;;0.60;0.60;;;20.40;46.10;;;;;;5078483;27;45260;-64
2023/03/17 08:25:58;;;;;;;0.57;0.50;;;20.50;46.00;;;;;;5088114;27;45713;-64
2023/03/17 08:28:24;;;;;;;0.57;0.57;;;20.60;46.00;;;;;;5088563;27;45593;-64
2023/03/17 08:30:49;;;;;;;0.50;0.50;;;20.60;45.90;;;;;;5065073;27;45248;-63
2023/03/17 08:33:15;;;;;;;0.93;0.60;;;20.70;45.80;;;;;;5090755;27;45980;-63
2023/03/17 08:35:41;;;;;;;0.45;0.45;;;20.80;45.80;;;;;;5070704;27;45146;-62
2023/03/17 08:38:07;;;;;;;0.55;0.40;;;20.80;45.80;;;;;;5071705;27;45138;-62
2023/03/17 08:40:32;;;;;;;0.40;0.40;;;20.90;45.70;;;;;;5069181;27;45541;-63
2023/03/17 08:42:58;;;;;;;1.15;0.50;;;21.00;45.70;;;;;;5057221;27;45600;-62
2023/03/17 08:45:24;;;;;;;0.73;0.45;;;21.00;45.60;;;;;;5054692;27;44671;-62
2023/03/17 08:47:49;;;;;;;0.50;0.50;;;21.10;45.50;;;;;;5094826;27;45481;-61
2023/03/17 08:50:17;;;;;;;0.45;0.45;;;21.20;45.50;;;;;;5068655;27;45359;-62
2023/03/17 08:52:43;;;;;;;0.40;0.30;;;21.20;45.50;;;;;;5052117;27;45889;-62
2023/03/17 08:55:10;;;;;;;0.28;0.28;;;21.30;45.40;;;;;;5094044;27;45147;-62
2023/03/17 08:57:36;;;;;;;0.50;0.50;;;21.30;45.40;;;;;;5063978;27;45599;-61
2023/03/17 09:00:09;;;;;;;0.50;0.50;;;21.40;45.30;;;;;;5096863;27;45433;-64
2023/03/17 09:02:39;;;;;;;0.50;0.40;;;21.50;45.30;;;;;;5039558;27;46891;-64
2023/03/17 09:05:06;;;;;;;0.40;0.40;;;21.60;45.20;;;;;;5086343;27;44956;-63
2023/03/17 09:07:31;;;;;;;0.40;0.40;;;21.60;45.20;;;;;;5070381;27;45214;-63
2023/03/17 09:09:58;;;;;;;0.50;0.30;;;21.70;45.10;;;;;;5076199;27;45265;-63
2023/03/17 09:12:24;;;;;;;0.50;0.40;;;21.70;45.00;;;;;;5068352;27;46114;-63
2023/03/17 09:14:50;;;;;;;0.50;0.40;;;21.80;45.00;;;;;;5072281;27;45274;-63
2023/03/17 09:17:15;;;;;;;0.55;0.50;;;21.90;45.00;;;;;;5083675;27;45208;-64
2023/03/17 09:19:42;;;;;;;0.50;0.47;;;22.00;44.90;;;;;;5074495;27;44718;-63
2023/03/17 09:22:12;;;;;;;0.40;0.40;;;22.00;44.80;;;;;;5090772;27;46972;-63
2023/03/17 09:24:37;;;;;;;0.68;0.22;;;22.10;44.80;;;;;;5079001;27;45475;-62
2023/03/17 09:27:03;;;;;;;0.32;0.32;;;22.10;44.70;;;;;;5073145;27;45495;-64
2023/03/17 09:29:29;;;;;;;0.43;0.40;;;22.20;44.70;;;;;;5076257;27;45508;-64
2023/03/17 09:31:58;;;;;;;2.30;0.50;;;22.20;44.70;;;;;;5087589;27;46186;-65
2023/03/17 09:34:24;;;;;;;1.23;0.52;;;22.30;44.70;;;;;;5088578;27;45165;-64
2023/03/17 09:36:49;;;;;;;0.55;0.50;;;22.30;44.60;;;;;;5088519;27;45296;-65
2023/03/17 09:39:15;;;;;;;0.57;0.45;;;22.40;44.60;;;;;;5091186;27;46077;-65
2023/03/17 09:41:59;;;;;;;0.40;0.40;;;22.40;44.60;;;;;;5082472;27;45370;-65
2023/03/17 09:44:50;;;;;;;0.50;0.40;;;22.50;44.50;;;;;;5094606;27;45441;-64
2023/03/17 09:47:38;;;;;;;2.33;0.43;;;22.50;44.10;;;;;;5088421;27;45475;-65
2023/03/17 09:50:26;;;;;;;0.63;0.43;;;22.50;44.00;;;;;;5087026;27;45105;-64
2023/03/17 09:52:51;;;;;;;0.25;0.25;;;22.60;44.40;;;;;;5076630;27;45551;-64
2023/03/17 09:55:27;;;;;;;0.80;0.40;;;22.60;44.40;;;;;;5085932;27;46771;-63
2023/03/17 09:57:54;;;;;;;1.10;0.55;;;22.60;44.10;;;;;;5071296;27;45248;-63
2023/03/17 10:00:21;;;;;;;1.23;0.32;;;22.70;44.20;;;;;;5080843;27;44746;-63
2023/03/17 10:02:47;;;;;;;0.50;0.50;;;22.80;44.20;;;;;;5090240;27;46023;-63
2023/03/17 10:05:16;;;;;;;0.50;0.40;;;22.80;44.20;;;;;;5088842;27;45198;-63
2023/03/17 10:07:56;;;;;;;0.60;0.40;;;22.80;44.00;;;;;;5092031;27;45421;-64
2023/03/17 10:10:45;;;;;;;0.40;0.40;;;22.90;43.90;;;;;;5054190;27;45298;-64
2023/03/17 10:13:23;;;;;;;0.57;0.57;;;22.90;43.80;;;;;;5052583;27;45923;-63
2023/03/17 10:15:52;;;;;;;0.45;0.38;;;23.00;43.90;;;;;;5062264;27;45452;-63
2023/03/17 10:18:18;;;;;;;0.70;0.50;;;23.00;43.90;;;;;;5055308;27;45088;-63
2023/03/17 10:20:51;;;;;;;0.88;0.47;;;23.00;43.90;;;;;;5051862;27;45292;-63
2023/03/17 10:23:18;;;;;;;;;;;23.00;43.90;;;;;;5053941;27;45462;-64
2023/03/17 10:25:43;;;;;;;0.40;0.40;;;23.00;43.60;;;;;;5089980;27;45603;-64
2023/03/17 10:28:25;;;;;;;0.40;0.30;;;23.00;44.00;;;;;;5078158;27;45605;-64
2023/03/17 10:30:51;;;;;;;0.73;0.50;;;23.10;43.80;;;;;;5034577;27;45917;-62
2023/03/17 10:33:17;;;;;;;0.50;0.50;;;23.10;44.10;;;;;;5091764;27;45681;-63
2023/03/17 10:35:43;;;;;;;1.10;0.70;;;23.10;44.00;;;;;;5069087;27;45677;-62
2023/03/17 10:38:21;;;;;;;0.98;0.40;;;23.20;44.00;;;;;;5076575;27;44647;-63
2023/03/17 10:40:58;;;;;;;0.40;0.40;;;23.30;43.60;;;;;;5069670;27;45140;-63
2023/03/17 10:43:27;;;;;;;0.40;0.40;;;23.30;43.60;;;;;;5072294;27;46004;-63
2023/03/17 10:45:57;;;;;;;0.98;0.47;;;23.40;43.60;;;;;;5068797;27;45428;-63
2023/03/17 10:48:23;;;;;;;0.30;0.30;;;23.40;43.70;;;;;;5063431;27;45249;-63
2023/03/17 10:50:49;;;;;;;0.98;0.50;;;23.40;43.60;;;;;;5067314;27;45647;-62
2023/03/17 10:53:28;;;;;;;0.38;0.38;;;23.50;43.60;;;;;;5073629;27;45382;-63
2023/03/17 10:56:01;;;;;;;0.63;0.30;;;23.50;43.50;;;;;;5092864;27;45591;-63
2023/03/17 10:58:38;;;;;;;;;;;23.50;43.50;;;;;;5070161;27;45895;-63
2023/03/17 11:01:18;;;;;;;0.40;0.30;;;23.50;43.20;;;;;;5091823;27;45491;-64
2023/03/17 11:03:44;;;;;;;0.43;0.30;;;23.50;43.60;;;;;;5062537;27;45296;-63
2023/03/17 11:06:14;;;;;;;0.80;0.43;;;23.60;43.50;;;;;;5076759;27;45289;-64
2023/03/17 11:08:53;;;;;;;0.70;0.50;;;23.60;43.40;;;;;;5080932;27;45378;-62
2023/03/17 11:11:27;;;;;;;0.50;0.30;;;23.60;43.30;;;;;;5072543;27;45303;-62
2023/03/17 11:14:10;;;;;;;0.22;0.22;;;23.70;43.30;;;;;;5098117;27;45910;-63
2023/03/17 11:16:47;;;;;;;2.45;0.30;;;23.60;43.30;;;;;;5070004;27;44774;-63
2023/03/17 11:19:14;;;;;;;0.70;0.43;;;23.50;43.50;;;;;;5062025;27;44883;-62
2023/03/17 11:21:51;;;;;;;0.25;0.20;;;23.40;43.60;;;;;;5071441;27;45488;-63
2023/03/17 11:24:49;;;;;;;0.20;0.20;;;23.30;43.60;;;;;;5078279;27;47107;-62
2023/03/17 11:27:21;;;;;;;0.30;0.30;;;23.20;43.60;;;;;;5075732;27;45521;-62
2023/03/17 11:29:56;;;;;;;0.30;0.30;;;23.20;44.10;;;;;;5075836;27;46662;-63
2023/03/17 11:32:27;;;;;;;0.50;0.40;;;23.10;44.10;;;;;;5088427;27;45306;-62
2023/03/17 11:34:59;;;;;;;0.28;0.20;;;23.00;44.20;;;;;;5079467;27;45158;-63
2023/03/17 11:37:56;;;;;;;0.60;0.30;;;23.00;44.40;;;;;;5087145;27;45124;-62
2023/03/17 11:40:44;;;;;;;0.50;0.40;;;22.90;44.30;;;;;;5059544;27;45510;-62
2023/03/17 11:43:25;;;;;;;2.90;0.40;;;22.80;44.40;;;;;;5098246;27;45736;-63
2023/03/17 11:45:55;;;;;;;2.58;0.38;;;22.80;44.70;;;;;;5086422;27;45240;-62
2023/03/17 11:48:29;;;;;;;0.50;0.30;;;22.70;44.60;;;;;;5073618;27;45998;-63
2023/03/17 11:51:17;;;;;;;0.30;0.30;;;22.60;44.70;;;;;;5074427;27;45111;-59
2023/03/17 11:53:53;;;;;;;0.52;0.50;;;22.60;44.70;;;;;;5078742;27;45558;-63
2023/03/17 11:56:20;;;;;;;0.38;0.32;;;22.60;44.90;;;;;;5069453;27;46306;-62
2023/03/17 11:58:48;;;;;;;0.38;0.38;;;22.50;44.90;;;;;;5078752;27;45202;-62
2023/03/17 12:01:20;;;;;;;0.82;0.50;;;22.40;44.90;;;;;;5049574;27;44704;-59
2023/03/17 12:04:06;;;;;;;0.57;0.55;;;22.40;44.90;;;;;;5080829;27;44742;-61
2023/03/17 12:06:34;;;;;;;2.13;0.40;;;22.30;44.90;;;;;;5074074;27;45703;-60
2023/03/17 12:09:06;;;;;;;0.57;0.50;;;22.30;45.00;;;;;;5078770;27;45256;-61
2023/03/17 12:11:34;;;;;;;0.43;0.40;;;22.30;45.00;;;;;;5068452;27;45250;-63
2023/03/17 12:14:03;;;;;;;0.40;0.30;;;22.10;45.10;;;;;;5064506;27;45209;-61
2023/03/17 12:16:34;;;;;;;0.43;0.43;;;22.10;45.10;;;;;;5067147;27;46431;-62
2023/03/17 12:19:10;;;;;;;0.57;0.43;;;22.10;45.20;;;;;;5075990;27;45469;-61
2023/03/17 12:21:44;;;;;;;0.30;0.28;;;22.10;45.30;;;;;;5070603;27;44902;-62
2023/03/17 12:24:24;;;;;;;0.43;0.43;;;22.00;45.30;;;;;;5077947;27;45426;-62
2023/03/17 12:26:54;;;;;;;1.17;0.45;;;21.90;45.30;;;;;;5074232;27;45792;-62
2023/03/17 12:29:39;;;;;;;0.30;0.30;;;21.90;45.40;;;;;;5069535;27;45502;-61
2023/03/17 12:32:20;;;;;;;1.23;0.40;;;21.90;45.50;;;;;;5065226;27;45429;-62
2023/03/17 12:34:50;;;;;;;0.40;0.40;;;21.80;45.50;;;;;;5071916;27;45207;-62
2023/03/17 12:37:16;;;;;;;0.50;0.35;;;21.80;45.60;;;;;;5096001;27;46218;-62
2023/03/17 12:39:53;;;;;;;0.52;0.35;;;21.70;45.70;;;;;;5043298;27;45627;-62
2023/03/17 12:42:46;;;;;;;1.85;0.47;;;21.70;46.30;;;;;;5069235;27;45252;-63
2023/03/17 12:45:26;;;;;;;0.40;0.40;;;21.60;45.80;;;;;;5054001;27;45619;-62
2023/03/17 12:47:55;;;;;;;0.77;0.30;;;21.60;45.80;;;;;;5072427;27;45696;-61
2023/03/17 12:50:34;;;;;;;1.85;0.40;;;21.50;45.80;;;;;;5086926;27;45983;-62
2023/03/17 12:53:02;;;;;;;0.28;0.28;;;21.50;45.90;;;;;;5070271;27;45315;-62
2023/03/17 12:55:30;;;;;;;0.50;0.50;;;21.50;45.90;;;;;;5082237;27;45315;-63
2023/03/17 12:58:04;;;;;;;0.63;0.40;;;21.40;45.90;;;;;;5059146;27;45119;-62
2023/03/17 13:00:36;;;;;;;0.68;0.50;;;21.40;46.00;;;;;;5083235;27;45549;-63
2023/03/17 13:03:24;;;;;;;0.40;0.40;;;21.40;46.10;;;;;;5073751;27;45481;-63
2023/03/17 13:05:52;;;;;;;0.32;0.30;;;21.30;46.20;;;;;;5070742;27;44754;-62
2023/03/17 13:08:35;;;;;;;0.43;0.40;;;21.30;46.20;;;;;;5060717;27;47454;-64
2023/03/17 13:11:35;;;;;;;0.50;0.32;;;21.20;46.20;;;;;;5073552;27;45353;-62
2023/03/17 13:14:16;;;;;;;0.30;0.30;;;21.20;46.30;;;;;;5090415;27;45429;-62
2023/03/17 13:16:45;;;;;;;0.57;0.32;;;21.10;46.30;;;;;;5064263;27;45300;-65
2023/03/17 13:19:20;;;;;;;0.47;0.43;;;21.10;46.30;;;;;;5074860;27;47100;-63
2023/03/17 13:21:59;;;;;;;0.50;0.40;;;21.10;46.40;;;;;;5070295;27;45308;-63
2023/03/17 13:24:41;;;;;;;0.68;0.55;;;21.10;46.50;;;;;;5075612;27;45223;-63
2023/03/17 13:27:10;;;;;;;1.08;0.50;;;21.00;46.60;;;;;;5090924;27;45219;-62
2023/03/17 13:29:42;;;;;;;0.40;0.38;;;21.00;46.50;;;;;;5057420;27;46216;-63
2023/03/17 13:32:14;;;;;;;0.50;0.50;;;21.00;46.50;;;;;;5056974;27;45350;-63
2023/03/17 13:34:54;;;;;;;0.63;0.40;;;20.90;46.60;;;;;;5092011;27;45452;-63
2023/03/17 13:37:30;;;;;;;1.02;0.50;;;20.90;46.60;;;;;;5057173;27;45809;-65
2023/03/17 13:40:20;;;;;;;0.17;0.17;;;20.90;46.70;;;;;;5085282;27;45763;-64
2023/03/17 13:42:57;;;;;;;0.40;0.40;;;20.90;46.70;;;;;;5053126;27;46201;-63
2023/03/17 13:45:37;;;;;;;0.35;0.30;;;20.80;46.70;;;;;;5053786;27;45808;-63
2023/03/17 13:48:35;;;;;;;0.90;0.50;;;20.80;46.80;;;;;;5072769;27;45061;-63
2023/03/17 13:51:07;;;;;;;0.50;0.38;;;20.70;46.80;;;;;;5087284;27;45399;-63
2023/03/17 13:53:36;;;;;;;0.55;0.50;;;20.70;46.80;;;;;;5090169;27;44655;-63
2023/03/17 13:56:16;;;;;;;2.90;0.40;;;20.70;47.50;;;;;;5062892;27;45289;-64
2023/03/17 13:58:58;;;;;;;0.52;0.40;;;20.60;46.80;;;;;;5076515;27;45782;-63
2023/03/17 14:01:25;;;;;;;0.30;0.30;;;20.60;46.90;;;;;;5064640;27;45222;-64
2023/03/17 14:03:52;;;;;;;0.50;0.30;;;20.60;46.90;;;;;;5069459;27;45153;-62
2023/03/17 14:06:18;;;;;;;0.32;0.30;;;20.60;47.00;;;;;;5082677;27;45411;-64
2023/03/17 14:08:46;;;;;;;0.65;0.50;;;20.60;46.90;;;;;;5056954;27;45252;-64
2023/03/17 14:11:23;;;;;;;0.52;0.52;;;20.50;47.00;;;;;;5065361;27;46395;-65
2023/03/17 14:14:05;;;;;;;0.45;0.30;;;20.50;47.00;;;;;;5058493;27;45257;-64
2023/03/17 14:16:33;;;;;;;0.38;0.35;;;20.50;47.10;;;;;;5061127;27;45238;-63
2023/03/17 14:19:17;;;;;;;0.60;0.50;;;20.40;47.10;;;;;;5073314;27;46278;-63
2023/03/17 14:21:42;;;;;;;0.40;0.40;;;20.40;47.20;;;;;;5045162;27;47183;-61
2023/03/17 14:24:28;;;;;;;0.50;0.50;;;20.40;47.10;;;;;;5068223;27;46133;-64
2023/03/17 14:26:54;;;;;;;0.43;0.40;;;20.40;47.20;;;;;;5064315;27;47189;-63
2023/03/17 14:29:24;;;;;;;0.38;0.38;;;20.30;47.20;;;;;;5043255;27;44742;-63
2023/03/17 14:31:51;;;;;;;0.47;0.32;;;20.30;47.20;;;;;;5066650;27;45914;-63
2023/03/17 14:34:20;;;;;;;0.40;0.40;;;20.30;47.20;;;;;;5057290;27;45409;-63
2023/03/17 14:36:45;;;;;;;0.57;0.55;;;20.30;47.30;;;;;;5087348;27;44657;-65
2023/03/17 14:39:22;;;;;;;0.63;0.50;;;20.20;47.30;;;;;;5058934;27;44745;-63
2023/03/17 14:41:57;;;;;;;0.85;0.47;;;20.20;47.30;;;;;;5083737;27;46956;-62
2023/03/17 14:44:22;;;;;;;0.65;0.40;;;20.20;47.40;;;;;;5091065;27;44796;-64
2023/03/17 14:46:48;;;;;;;0.50;0.40;;;20.20;47.40;;;;;;5076865;27;45708;-64
2023/03/17 14:49:16;;;;;;;0.65;0.50;;;20.20;47.40;;;;;;5055580;27;45295;-63
2023/03/17 14:51:42;;;;;;;0.40;0.40;;;20.10;47.40;;;;;;5069022;27;45412;-63
2023/03/17 14:54:19;;;;;;;0.55;0.45;;;20.10;47.40;;;;;;5059810;27;46722;-63
2023/03/17 14:56:46;;;;;;;0.22;0.22;;;20.10;47.50;;;;;;5055305;27;45346;-64
2023/03/17 14:59:24;;;;;;;0.60;0.50;;;20.10;47.50;;;;;;5074769;27;45202;-63
2023/03/17 15:01:56;;;;;;;0.60;0.40;;;20.10;47.50;;;;;;5065437;27;46092;-63
2023/03/17 15:04:23;;;;;;;0.43;0.43;;;20.00;47.50;;;;;;5074321;27;45170;-64
2023/03/17 15:07:00;;;;;;;0.30;0.30;;;20.00;47.50;;;;;;5079200;27;45685;-64
2023/03/17 15:09:38;;;;;;;0.45;0.40;;;20.00;47.50;;;;;;5069869;27;46201;-64
2023/03/17 15:12:22;;;;;;;0.50;0.40;;;20.00;47.60;;;;;;5087710;27;45565;-64
2023/03/17 15:14:55;;;;;;;0.50;0.40;;;20.00;47.70;;;;;;5075120;27;45219;-64
2023/03/17 15:17:25;;;;;;;1.02;0.43;;;19.90;47.60;;;;;;5050765;27;46009;-63
2023/03/17 15:19:51;;;;;;;0.38;0.38;;;19.90;47.60;;;;;;5072325;27;45474;-63
2023/03/17 15:22:25;;;;;;;0.40;0.40;;;19.90;47.60;;;;;;5052409;27;46010;-63
2023/03/17 15:25:01;;;;;;;0.40;0.30;;;19.90;47.70;;;;;;5074120;27;45201;-64
2023/03/17 15:27:27;;;;;;;0.43;0.43;;;19.80;47.70;;;;;;5087896;27;45324;-65
2023/03/17 15:29:52;;;;;;;0.55;0.50;;;19.80;47.70;;;;;;5076524;27;45216;-65
2023/03/17 15:32:20;;;;;;;0.50;0.43;;;19.80;47.70;;;;;;5035636;27;49336;-64
2023/03/17 15:34:50;;;;;;;0.43;0.40;;;19.80;47.80;;;;;;5089126;27;44719;-63
2023/03/17 15:37:22;;;;;;;0.28;0.28;;;19.80;47.80;;;;;;5052556;27;45387;-64
2023/03/17 15:39:48;;;;;;;0.50;0.40;;;19.70;47.80;;;;;;5074115;27;45427;-63
2023/03/17 15:42:15;;;;;;;0.40;0.40;;;19.70;47.80;;;;;;5086782;27;45981;-63
2023/03/17 15:44:40;;;;;;;0.30;0.30;;;19.70;47.80;;;;;;5089962;27;45466;-65
2023/03/17 15:47:06;;;;;;;0.47;0.40;;;19.70;47.80;;;;;;5065432;27;45636;-63
2023/03/17 15:49:33;;;;;;;0.60;0.30;;;19.70;47.80;;;;;;5057718;27;45523;-63
2023/03/17 15:51:59;;;;;;;1.65;0.40;;;19.70;47.80;;;;;;5071744;27;45949;-64
2023/03/17 15:54:25;;;;;;;0.52;0.45;;;19.70;47.80;;;;;;5086778;27;45379;-64
2023/03/17 15:56:50;;;;;;;0.22;0.22;;;19.60;47.80;;;;;;5093145;27;45179;-62
2023/03/17 15:59:16;;;;;;;0.52;0.52;;;19.60;47.80;;;;;;5101453;27;44727;-64
2023/03/17 16:01:42;;;;;;;0.82;0.40;;;19.60;47.80;;;;;;5091789;22;45192;-64
2023/03/17 16:04:07;;;;;;;0.35;0.35;;;19.60;47.90;;;;;;5107807;27;45344;-63
2023/03/17 16:06:33;;;;;;;0.32;0.30;;;19.60;47.90;;;;;;5089418;27;45244;-64
2023/03/17 16:08:59;;;;;;;0.55;0.38;;;19.60;47.90;;;;;;5099938;27;45409;-63
2023/03/17 16:11:27;;;;;;;0.20;0.20;;;19.50;47.80;;;;;;5090024;27;45111;-64
2023/03/17 16:13:56;;;;;;;0.32;0.30;;;19.50;48.50;;;;;;5053220;27;45249;-64
2023/03/17 16:16:31;;;;;;;0.32;0.32;;;19.50;47.90;;;;;;5065758;27;45609;-68
2023/03/17 16:18:57;;;;;;;0.40;0.40;;;19.50;47.90;;;;;;5076603;27;44712;-63
2023/03/17 16:21:22;;;;;;;0.47;0.47;;;19.50;47.90;;;;;;5044496;27;46496;-64
2023/03/17 16:23:48;;;;;;;0.50;0.50;;;19.50;48.00;;;;;;5089715;27;45438;-63
2023/03/17 16:26:13;;;;;;;0.47;0.40;;;19.40;48.00;;;;;;5074370;27;45545;-63
2023/03/17 16:28:39;;;;;;;0.85;0.52;;;19.40;48.00;;;;;;5075720;27;44895;-63
2023/03/17 16:31:21;;;;;;;0.50;0.40;;;19.40;48.00;;;;;;5064126;27;45303;-64
2023/03/17 16:33:46;;;;;;;1.05;0.30;;;19.40;48.10;;;;;;5075029;27;45263;-62
2023/03/17 16:36:16;;;;;;;0.47;0.40;;;19.40;48.00;;;;;;5087509;27;45458;-63
2023/03/17 16:38:42;;;;;;;0.63;0.32;;;19.40;48.10;;;;;;5073453;27;44766;-63
2023/03/17 16:41:12;;;;;;;0.30;0.30;;;19.30;48.00;;;;;;5071668;27;47057;-63
2023/03/17 16:43:37;;;;;;;0.30;0.30;;;19.30;48.10;;;;;;5059934;27;45215;-65
2023/03/17 16:46:04;;;;;;;0.40;0.30;;;19.30;48.10;;;;;;5067199;27;45132;-63
2023/03/17 16:48:30;;;;;;;0.30;0.30;;;19.30;48.10;;;;;;5076861;27;44657;-63
2023/03/17 16:50:56;;;;;;;0.60;0.50;;;19.30;48.10;;;;;;5064308;27;46212;-64
2023/03/17 16:53:21;;;;;;;0.35;0.32;;;19.20;48.10;;;;;;5066394;27;45284;-63
2023/03/17 16:55:47;;;;;;;0.38;0.30;;;19.20;48.10;;;;;;5089734;27;44721;-61
2023/03/17 16:58:37;;;;;;;0.30;0.30;;;19.20;48.10;;;;;;5070534;27;45143;-66
2023/03/17 17:01:05;;;;;;;0.98;0.60;;;19.20;48.20;;;;;;5068490;27;45654;-64
2023/03/17 17:03:31;;;;;;;0.30;0.30;;;19.20;48.20;;;;;;5068845;27;46322;-63